Time;durP1;ratioP1;P1;durP2;ratioP2;P2;SDS_P1;SDS_P2;PMS_P1;PMS_P2;Temp;Humidity;BMP_temperature;BMP_pressure;BME280_temperature;BME280_humidity;BME280_pressure;Samples;Min_cycle;Max_cycle;Signal;HPM_P1;HPM_P2
2022/01/23 00:00:34;;;;;;;13.20;5.50;;;;;;;-0.43;74.98;101360.23;88208;1273;88702;-70
2022/01/23 00:02:59;;;;;;;11.70;5.30;;;;;;;-0.47;74.88;101358.35;88220;1273;95241;-67
2022/01/23 00:05:10;;;;;;;13.50;4.90;;;;;;;-0.48;74.89;101363.77;88222;1273;81641;-67
2022/01/23 00:07:19;;;;;;;11.20;5.10;;;;;;;-0.52;74.94;101363.26;88213;1274;79913;-66
2022/01/23 00:09:28;;;;;;;10.40;4.60;;;;;;;-0.51;75.05;101371.15;88248;1273;99413;-62
2022/01/23 00:11:43;;;;;;;12.40;4.80;;;;;;;-0.48;75.26;101368.00;88216;1273;89479;-68
2022/01/23 00:18:50;;;;;;;12.60;5.10;;;;;;;-0.31;75.29;101369.77;88279;1273;80950;-62
2022/01/23 00:21:00;;;;;;;13.70;5.30;;;;;;;-0.28;75.28;101368.84;88196;1273;98773;-62
2022/01/23 00:23:15;;;;;;;12.70;5.70;;;;;;;-0.30;75.17;101364.91;88270;1273;88652;-62
2022/01/23 00:30:29;;;;;;;12.70;5.30;;;;;;;-0.36;75.23;101369.17;88256;1273;81447;-64
2022/01/23 00:32:41;;;;;;;16.00;5.50;;;;;;;-0.43;75.25;101365.36;88176;1275;99384;-65
2022/01/23 00:34:53;;;;;;;14.20;6.10;;;;;;;-0.44;75.23;101365.41;88150;1276;88638;-61
2022/01/23 00:37:05;;;;;;;19.90;8.50;;;;;;;-0.45;75.29;101364.06;88129;1276;95405;-66
2022/01/23 00:39:15;;;;;;;15.90;7.50;;;;;;;-0.50;75.24;101361.22;88216;1275;80194;-67
2022/01/23 00:41:24;;;;;;;14.60;5.90;;;;;;;-0.51;75.28;101352.27;88109;1276;81843;-66
2022/01/23 00:43:40;;;;;;;10.20;4.90;;;;;;;-0.55;75.33;101345.64;88130;1276;99270;-67
2022/01/23 00:45:54;;;;;;;10.00;4.90;;;;;;;-0.54;75.43;101353.17;88183;1275;89068;-67
2022/01/23 00:48:08;;;;;;;10.10;4.70;;;;;;;-0.52;75.49;101359.21;88135;1276;95829;-67
2022/01/23 00:50:17;;;;;;;8.40;4.20;;;;;;;-0.48;75.43;101358.41;88124;1273;79765;-68
2022/01/23 00:52:26;;;;;;;9.30;4.60;;;;;;;-0.42;75.80;101361.92;88188;1274;81076;-66
2022/01/23 00:54:35;;;;;;;70.80;28.80;;;;;;;-0.34;75.68;101363.40;88199;1274;98018;-66
2022/01/23 00:56:44;;;;;;;175.10;65.00;;;;;;;-0.35;75.67;101363.43;88167;1276;88654;-67
2022/01/23 00:58:56;;;;;;;146.10;53.60;;;;;;;-0.33;75.80;101362.09;88177;1274;96153;-61
2022/01/23 01:01:07;;;;;;;106.80;39.40;;;;;;;-0.33;75.74;101363.47;88185;1275;77716;-66
2022/01/23 01:03:19;;;;;;;95.10;30.70;;;;;;;-0.33;75.79;101363.99;88148;1276;80002;-67
2022/01/23 01:05:30;;;;;;;276.70;75.50;;;;;;;-0.36;75.68;101364.94;88114;1276;96367;-67
2022/01/23 01:07:39;;;;;;;254.30;73.50;;;;;;;-0.41;75.78;101368.45;88211;1274;86718;-70
2022/01/23 01:09:54;;;;;;;204.90;60.20;;;;;;;-0.44;75.67;101366.88;88146;1276;95878;-62
2022/01/23 01:12:05;;;;;;;126.20;35.80;;;;;;;-0.44;75.75;101365.29;88177;1274;78702;-62
2022/01/23 01:14:28;;;;;;;148.20;52.00;;;;;;;-0.47;75.70;101364.39;88163;1274;83231;-62
2022/01/23 01:16:55;;;;;;;85.30;34.70;;;;;;;-0.48;75.76;101361.41;88156;1276;96084;-67
2022/01/23 01:31:27;;;;;;;37.40;18.50;;;;;;;-0.39;76.37;101375.00;88201;1273;88711;-62
2022/01/23 01:33:44;;;;;;;59.70;29.20;;;;;;;-0.37;76.22;101381.08;88254;1273;94641;-62
2022/01/23 01:36:00;;;;;;;50.10;24.00;;;;;;;-0.37;76.34;101387.77;88277;1273;78510;-62
2022/01/23 01:38:09;;;;;;;32.20;17.50;;;;;;;-0.41;76.47;101388.39;88284;1271;82138;-62
2022/01/23 01:40:23;;;;;;;49.90;23.60;;;;;;;-0.42;76.34;101387.80;88182;1273;99095;-63
2022/01/23 01:42:32;;;;;;;26.80;14.00;;;;;;;-0.44;76.27;101388.95;88188;1273;88295;-62
2022/01/23 01:44:40;;;;;;;19.80;9.40;;;;;;;-0.45;76.21;101387.29;88245;1273;94971;-66
2022/01/23 01:46:50;;;;;;;41.10;21.30;;;;;;;-0.50;76.30;101382.77;88273;1273;79201;-61
2022/01/23 01:49:02;;;;;;;46.20;22.30;;;;;;;-0.53;76.38;101385.64;88272;1273;81429;-61
2022/01/23 01:51:16;;;;;;;30.90;16.40;;;;;;;-0.54;76.41;101386.23;88208;1273;98509;-66
2022/01/23 01:53:29;;;;;;;24.00;13.30;;;;;;;-0.53;76.49;101383.16;88211;1273;89047;-68
2022/01/23 01:55:44;;;;;;;20.00;11.30;;;;;;;-0.49;76.59;101385.05;88243;1273;92839;-62
2022/01/23 01:58:03;;;;;;;22.90;12.00;;;;;;;-0.47;76.60;101384.03;88194;1273;78484;-62
2022/01/23 02:00:36;;;;;;;42.10;22.90;;;;;;;-0.43;76.81;101383.27;88266;1273;82787;-60
2022/01/23 02:10:09;;;;;;;30.40;18.30;;;;;;;-0.46;76.66;101380.09;88232;1273;77557;-66
2022/01/23 02:12:56;;;;;;;51.10;31.10;;;;;;;-0.50;76.80;101379.11;88311;1273;80464;-62
2022/01/23 02:15:26;;;;;;;26.70;16.00;;;;;;;-0.53;76.74;101376.23;88273;1273;99940;-62
2022/01/23 02:17:55;;;;;;;22.50;11.10;;;;;;;-0.56;76.75;101379.83;88186;1274;89289;-61
2022/01/23 02:22:50;;;;;;;21.30;11.20;;;;;;;-0.60;76.97;101382.70;88249;1273;78788;-62
2022/01/23 02:25:29;;;;;;;20.90;13.20;;;;;;;-0.63;76.99;101383.02;88297;1273;81152;-61
2022/01/23 02:52:50;;;;;;;24.10;13.90;;;;;;;-0.45;76.95;101411.67;88226;1273;98207;-63
2022/01/23 02:55:12;;;;;;;13.00;7.70;;;;;;;-0.51;77.12;101410.62;88194;1273;88086;-63
2022/01/23 02:57:39;;;;;;;13.80;8.40;;;;;;;-0.51;77.07;101414.88;88244;1273;95527;-63
2022/01/23 02:59:49;;;;;;;12.20;6.00;;;;;;;-0.52;77.08;101417.61;88256;1273;79549;-63
2022/01/23 03:02:11;;;;;;;14.40;5.20;;;;;;;-0.50;77.17;101418.36;88187;1273;82701;-66
2022/01/23 03:04:22;;;;;;;9.60;5.20;;;;;;;-0.49;77.21;101421.64;88176;1273;99091;-68
2022/01/23 03:06:54;;;;;;;13.00;6.80;;;;;;;-0.48;77.32;101423.55;88266;1273;86948;-62
2022/01/23 03:09:52;;;;;;;12.90;6.20;;;;;;;-0.43;77.39;101422.02;88259;1273;95572;-60
2022/01/23 03:12:11;;;;;;;10.90;5.40;;;;;;;-0.41;77.16;101423.45;88255;1273;77773;-68
2022/01/23 03:14:38;;;;;;;11.10;5.20;;;;;;;-0.39;77.33;101427.94;88207;1273;83403;-68
2022/01/23 03:24:29;;;;;;;20.60;11.70;;;;;;;-0.51;77.29;101459.84;88291;1273;78759;-67
2022/01/23 03:26:52;;;;;;;29.50;15.40;;;;;;;-0.53;77.31;101458.02;88272;1273;81090;-62
2022/01/23 03:29:16;;;;;;;26.50;14.20;;;;;;;-0.56;77.35;101458.55;88260;1273;98954;-62
2022/01/23 03:31:29;;;;;;;23.90;13.00;;;;;;;-0.60;77.29;101456.48;88165;1276;88497;-68
2022/01/23 03:33:41;;;;;;;18.20;11.20;;;;;;;-0.61;77.25;101464.50;88241;1273;95663;-69
2022/01/23 03:35:50;;;;;;;12.20;7.40;;;;;;;-0.63;77.22;101469.91;88192;1274;80270;-67
2022/01/23 03:37:59;;;;;;;13.60;7.70;;;;;;;-0.62;77.36;101468.23;88259;1273;80785;-68
2022/01/23 03:40:11;;;;;;;14.80;7.90;;;;;;;-0.62;77.62;101472.13;88235;1273;98567;-70
2022/01/23 03:42:24;;;;;;;13.30;7.70;;;;;;;-0.58;77.60;101475.29;88290;1273;87970;-62
2022/01/23 03:44:39;;;;;;;14.60;8.50;;;;;;;-0.59;77.59;101476.05;88213;1273;95279;-63
2022/01/23 03:47:12;;;;;;;15.40;8.00;;;;;;;-0.60;77.66;101472.39;88252;1273;79586;-68
2022/01/23 03:49:34;;;;;;;9.50;5.80;;;;;;;-0.55;77.63;101474.77;88205;1274;84005;-68
2022/01/23 03:51:43;;;;;;;10.90;5.50;;;;;;;-0.55;77.70;101481.27;88263;1273;98307;-68
2022/01/23 03:53:52;;;;;;;11.20;5.50;;;;;;;-0.59;77.55;101489.10;88279;1273;88013;-69
2022/01/23 03:56:01;;;;;;;12.40;5.20;;;;;;;-0.57;77.54;101489.90;88197;1273;95739;-62
2022/01/23 03:58:10;;;;;;;14.20;7.30;;;;;;;-0.61;77.54;101498.05;88279;1273;79220;-62
2022/01/23 04:00:23;;;;;;;12.20;6.00;;;;;;;-0.64;77.50;101502.34;88176;1273;83410;-65
2022/01/23 04:02:35;;;;;;;12.70;6.70;;;;;;;-0.67;77.48;101507.30;88276;1273;96785;-68
2022/01/23 04:04:46;;;;;;;12.10;7.30;;;;;;;-0.69;77.59;101513.23;88270;1273;89684;-68
2022/01/23 04:06:57;;;;;;;13.80;5.50;;;;;;;-0.70;77.67;101516.13;88248;1273;94826;-69
2022/01/23 04:09:06;;;;;;;10.70;6.30;;;;;;;-0.69;77.75;101513.75;88267;1273;81597;-69
2022/01/23 04:11:16;;;;;;;10.60;5.20;;;;;;;-0.68;77.66;101514.58;88281;1273;82753;-69
2022/01/23 04:13:34;;;;;;;20.00;9.60;;;;;;;-0.64;77.75;101517.38;88287;1273;98952;-68
2022/01/23 04:15:49;;;;;;;32.20;15.80;;;;;;;-0.62;77.68;101522.71;88248;1273;89876;-70
2022/01/23 04:18:51;;;;;;;28.50;14.10;;;;;;;-0.60;77.73;101524.88;88191;1274;95141;-68
2022/01/23 04:21:02;;;;;;;24.90;12.50;;;;;;;-0.60;77.86;101524.88;88279;1273;77227;-71
2022/01/23 04:33:30;;;;;;;16.00;8.30;;;;;;;-0.70;77.90;101535.27;88305;1274;78495;-61
2022/01/23 04:45:36;;;;;;;13.30;6.30;;;;;;;-0.72;78.17;101535.18;88258;1274;79156;-66
2022/01/23 05:00:09;;;;;;;18.60;10.30;;;;;;;-0.65;78.15;101523.41;88277;1273;83032;-62
2022/01/23 05:02:48;;;;;;;18.60;9.50;;;;;;;-0.68;78.06;101526.98;88304;1274;96703;-66
2022/01/23 05:04:50;;;;;;;17.30;9.80;;;;;;;-0.73;78.09;101529.23;88297;1274;90130;-67
2022/01/23 05:07:05;;;;;;;17.90;9.60;;;;;;;-0.78;78.08;101531.45;88256;1274;95840;-61
2022/01/23 05:09:16;;;;;;;22.50;11.90;;;;;;;-0.83;78.06;101535.64;88273;1271;78909;-61
2022/01/23 05:11:28;;;;;;;25.80;13.30;;;;;;;-0.85;78.04;101538.81;88269;1273;82601;-60
2022/01/23 05:13:40;;;;;;;20.10;10.80;;;;;;;-0.89;78.17;101547.14;88277;1273;98961;-61
2022/01/23 05:15:50;;;;;;;43.40;22.80;;;;;;;-0.88;78.11;101556.13;88277;1274;87364;-70
2022/01/23 05:17:58;;;;;;;20.60;11.30;;;;;;;-0.90;78.38;101560.66;88279;1274;94587;-71
2022/01/23 05:20:14;;;;;;;26.00;13.20;;;;;;;-0.93;78.46;101557.64;88285;1274;80354;-71
2022/01/23 05:22:32;;;;;;;43.40;19.90;;;;;;;-0.87;78.33;101565.77;88198;1274;83705;-70
2022/01/23 05:24:48;;;;;;;37.40;18.30;;;;;;;-0.82;78.50;101566.54;88300;1274;97771;-70
2022/01/23 05:27:03;;;;;;;33.40;15.40;;;;;;;-0.78;78.68;101566.83;88309;1274;87957;-69
2022/01/23 05:29:14;;;;;;;38.10;17.40;;;;;;;-0.76;78.63;101573.48;88309;1274;94955;-69
2022/01/23 05:31:26;;;;;;;39.00;18.10;;;;;;;-0.74;78.63;101572.45;88298;1273;79917;-61
2022/01/23 05:33:34;;;;;;;60.40;28.70;;;;;;;-0.71;78.54;101570.15;88255;1273;83116;-60
2022/01/23 05:35:43;;;;;;;37.60;17.50;;;;;;;-0.74;78.44;101573.50;88288;1274;99531;-67
2022/01/23 05:37:53;;;;;;;60.70;31.70;;;;;;;-0.74;78.53;101577.23;88273;1273;87791;-67
2022/01/23 05:40:02;;;;;;;68.40;33.40;;;;;;;-0.77;78.65;101573.48;88262;1273;93879;-67
2022/01/23 05:42:12;;;;;;;57.20;29.10;;;;;;;-0.78;78.54;101573.05;88290;1273;80690;-61
2022/01/23 05:44:21;;;;;;;48.20;22.70;;;;;;;-0.79;78.75;101573.95;88306;1274;80381;-62
2022/01/23 05:46:30;;;;;;;54.10;26.10;;;;;;;-0.78;78.59;101576.21;88252;1273;99290;-61
2022/01/23 05:48:39;;;;;;;47.30;22.90;;;;;;;-0.75;78.54;101578.34;88270;1273;87827;-62
2022/01/23 05:50:49;;;;;;;51.00;27.50;;;;;;;-0.70;78.74;101580.70;88265;1273;95618;-61
2022/01/23 05:52:58;;;;;;;54.70;27.10;;;;;;;-0.67;78.79;101577.51;88273;1272;80901;-62
2022/01/23 05:55:09;;;;;;;47.90;22.20;;;;;;;-0.64;78.85;101580.54;88313;1274;80468;-60
2022/01/23 05:57:22;;;;;;;42.60;23.20;;;;;;;-0.62;78.90;101587.45;88283;1274;99514;-62
2022/01/23 05:59:31;;;;;;;58.30;32.40;;;;;;;-0.61;78.90;101589.54;88312;1274;86287;-61
2022/01/23 06:01:42;;;;;;;55.90;30.00;;;;;;;-0.58;78.91;101593.08;88319;1272;95251;-67
2022/01/23 06:03:51;;;;;;;47.70;25.50;;;;;;;-0.54;78.89;101600.67;88305;1274;77139;-70
2022/01/23 06:06:04;;;;;;;50.50;25.90;;;;;;;-0.54;78.85;101599.42;88311;1274;81276;-62
2022/01/23 06:08:13;;;;;;;39.10;18.70;;;;;;;-0.59;78.92;101601.80;88299;1272;97399;-61
2022/01/23 06:10:25;;;;;;;39.50;21.10;;;;;;;-0.63;78.77;101603.46;88294;1274;88852;-62
2022/01/23 06:12:35;;;;;;;27.40;12.40;;;;;;;-0.65;78.99;101607.42;88255;1274;94176;-60
2022/01/23 06:14:44;;;;;;;37.90;19.10;;;;;;;-0.67;78.86;101607.77;88281;1274;79981;-62
2022/01/23 06:16:55;;;;;;;38.00;20.30;;;;;;;-0.70;78.89;101615.55;88324;1274;83004;-66
2022/01/23 06:19:04;;;;;;;36.20;18.90;;;;;;;-0.71;78.80;101615.79;88275;1274;98950;-67
2022/01/23 06:21:16;;;;;;;34.20;18.80;;;;;;;-0.69;78.88;101611.95;88319;1274;86947;-61
2022/01/23 06:23:29;;;;;;;37.90;20.90;;;;;;;-0.68;78.80;101615.62;88287;1274;95708;-61
2022/01/23 06:25:42;;;;;;;27.60;14.70;;;;;;;-0.68;79.08;101616.45;88220;1273;81427;-67
2022/01/23 06:27:51;;;;;;;28.80;14.20;;;;;;;-0.65;79.05;101619.85;88273;1273;81713;-68
2022/01/23 06:30:00;;;;;;;27.00;13.80;;;;;;;-0.64;79.18;101621.02;88235;1273;97273;-68
2022/01/23 06:32:14;;;;;;;20.40;11.80;;;;;;;-0.62;79.02;101624.82;88268;1273;88109;-66
2022/01/23 06:34:23;;;;;;;25.60;13.70;;;;;;;-0.57;79.11;101627.02;88306;1273;95445;-67
2022/01/23 06:36:33;;;;;;;21.10;10.30;;;;;;;-0.56;79.11;101626.60;88334;1274;77335;-69
2022/01/23 06:38:42;;;;;;;25.20;12.60;;;;;;;-0.50;79.14;101630.11;88329;1274;81987;-67
2022/01/23 06:40:52;;;;;;;19.40;10.10;;;;;;;-0.48;78.97;101638.67;88264;1274;98960;-62
2022/01/23 06:43:01;;;;;;;15.10;8.80;;;;;;;-0.48;79.00;101639.20;88305;1273;89211;-61
2022/01/23 06:45:12;;;;;;;18.50;8.40;;;;;;;-0.45;79.04;101639.05;88284;1274;93167;-62
2022/01/23 06:47:24;;;;;;;17.80;7.40;;;;;;;-0.44;79.03;101652.96;88287;1273;78941;-68
2022/01/23 06:49:34;;;;;;;14.90;5.90;;;;;;;-0.46;79.12;101659.77;88271;1273;82483;-68
2022/01/23 06:51:44;;;;;;;21.50;10.60;;;;;;;-0.46;79.00;101663.52;88285;1273;99750;-67
2022/01/23 06:53:53;;;;;;;26.50;13.50;;;;;;;-0.49;79.17;101661.39;88303;1274;88576;-67
2022/01/23 06:56:05;;;;;;;27.00;12.60;;;;;;;-0.49;79.16;101668.45;88288;1272;96053;-68
2022/01/23 06:58:15;;;;;;;25.70;12.80;;;;;;;-0.49;79.18;101673.63;88286;1274;77791;-68
2022/01/23 07:00:23;;;;;;;32.40;15.80;;;;;;;-0.48;79.11;101674.95;88293;1274;81913;-64
2022/01/23 07:02:33;;;;;;;37.50;18.70;;;;;;;-0.46;79.31;101681.55;88290;1274;96729;-63
2022/01/23 07:04:42;;;;;;;30.90;14.60;;;;;;;-0.41;79.33;101687.48;88186;1273;90959;-62
2022/01/23 07:06:55;;;;;;;30.50;14.90;;;;;;;-0.34;79.27;101693.23;88320;1274;95253;-68
2022/01/23 07:09:04;;;;;;;31.40;15.30;;;;;;;-0.28;79.40;101698.21;88255;1271;79933;-67
2022/01/23 07:11:13;;;;;;;29.00;13.70;;;;;;;-0.24;79.40;101701.86;88251;1273;81112;-63
2022/01/23 07:13:26;;;;;;;53.20;25.90;;;;;;;-0.18;79.27;101707.53;88288;1274;96956;-61
2022/01/23 07:15:35;;;;;;;51.60;25.30;;;;;;;-0.14;79.43;101709.73;88304;1273;86726;-63
2022/01/23 07:17:46;;;;;;;53.10;26.30;;;;;;;-0.09;79.37;101716.19;88296;1274;94467;-63
2022/01/23 07:19:55;;;;;;;23.50;11.10;;;;;;;-0.00;79.38;101717.13;88241;1273;79014;-66
2022/01/23 07:22:04;;;;;;;29.00;15.10;;;;;;;0.05;79.11;101717.54;88283;1274;82743;-68
2022/01/23 07:24:17;;;;;;;24.00;12.30;;;;;;;0.08;79.16;101719.64;88292;1274;97384;-67
2022/01/23 07:26:28;;;;;;;17.70;9.10;;;;;;;0.05;79.16;101726.87;88264;1273;88874;-64
2022/01/23 07:28:41;;;;;;;25.20;13.00;;;;;;;0.04;79.00;101730.49;88255;1274;94127;-65
2022/01/23 07:30:52;;;;;;;;;;;;;;;0.03;79.19;101724.20;88301;1273;77187;-65
2022/01/23 07:33:01;;;;;;;14.60;7.10;;;;;;;-0.02;79.09;101724.48;88305;1273;81809;-64
2022/01/23 07:35:12;;;;;;;11.10;5.40;;;;;;;-0.01;78.92;101726.70;88175;1274;99175;-65
2022/01/23 07:37:21;;;;;;;119.00;59.70;;;;;;;0.03;78.81;101731.65;88291;1274;87549;-65
2022/01/23 07:39:31;;;;;;;70.10;36.70;;;;;;;0.07;78.72;101733.16;88275;1273;93541;-65
2022/01/23 07:41:44;;;;;;;10.20;5.20;;;;;;;0.09;78.59;101738.52;88277;1274;78710;-66
2022/01/23 07:43:53;;;;;;;12.10;4.60;;;;;;;0.10;78.62;101744.13;88289;1274;83236;-67
2022/01/23 07:46:03;;;;;;;7.60;4.00;;;;;;;0.11;78.60;101746.91;88199;1274;99796;-66
2022/01/23 07:48:12;;;;;;;12.10;3.90;;;;;;;0.15;78.58;101741.17;88274;1274;87591;-68
2022/01/23 07:50:22;;;;;;;7.80;3.40;;;;;;;0.16;78.51;101746.40;88273;1274;95240;-64
2022/01/23 07:52:34;;;;;;;6.90;3.20;;;;;;;0.25;78.22;101753.85;88280;1274;80299;-64
2022/01/23 07:54:43;;;;;;;8.00;3.20;;;;;;;0.30;78.09;101755.52;88281;1274;80543;-64
2022/01/23 07:56:53;;;;;;;7.70;3.20;;;;;;;0.33;77.87;101758.33;88288;1273;99403;-63
2022/01/23 07:59:02;;;;;;;5.90;3.20;;;;;;;0.38;77.63;101768.30;88289;1274;88056;-65
2022/01/23 08:01:14;;;;;;;6.50;2.80;;;;;;;0.39;77.46;101770.01;88267;1273;96073;-65
2022/01/23 08:03:23;;;;;;;5.00;2.80;;;;;;;0.40;77.27;101779.66;88306;1274;77820;-65
2022/01/23 08:05:32;;;;;;;6.50;3.00;;;;;;;0.38;77.19;101785.52;88317;1274;82422;-66
2022/01/23 08:07:41;;;;;;;6.40;3.40;;;;;;;0.40;77.00;101788.41;88293;1274;98837;-67
2022/01/23 08:09:50;;;;;;;6.10;3.00;;;;;;;0.43;76.78;101795.42;88281;1274;89703;-66
2022/01/23 08:12:00;;;;;;;5.90;3.00;;;;;;;0.46;76.59;101794.56;88267;1273;93921;-63
2022/01/23 08:14:10;;;;;;;6.50;3.10;;;;;;;0.45;76.51;101796.97;88286;1274;78031;-63
2022/01/23 08:16:19;;;;;;;5.60;3.20;;;;;;;0.41;76.45;101793.44;88289;1273;80919;-67
2022/01/23 08:18:32;;;;;;;6.30;3.40;;;;;;;0.44;76.30;101800.70;88281;1273;98788;-67
2022/01/23 08:20:42;;;;;;;7.90;3.80;;;;;;;0.48;76.30;101797.14;88331;1274;87373;-63
2022/01/23 08:22:52;;;;;;;5.90;3.40;;;;;;;0.47;76.22;101795.60;88285;1274;95940;-63
2022/01/23 08:25:03;;;;;;;7.00;3.60;;;;;;;0.48;76.00;101796.96;88292;1274;77321;-63
2022/01/23 08:27:15;;;;;;;7.30;3.40;;;;;;;0.52;75.94;101801.34;88317;1274;82812;-64
2022/01/23 08:29:27;;;;;;;5.60;3.00;;;;;;;0.57;75.73;101801.90;88287;1274;98491;-64
2022/01/23 08:31:37;;;;;;;5.40;2.90;;;;;;;0.60;75.60;101803.33;88282;1273;87578;-68
2022/01/23 08:33:46;;;;;;;5.90;2.70;;;;;;;0.68;75.31;101805.32;88297;1274;93792;-66
2022/01/23 08:35:57;;;;;;;5.50;2.70;;;;;;;0.75;75.00;101814.45;88255;1274;79503;-62
2022/01/23 08:38:07;;;;;;;5.40;2.90;;;;;;;0.84;74.89;101822.07;88270;1274;81791;-62
2022/01/23 08:40:23;;;;;;;5.50;2.90;;;;;;;0.98;74.57;101829.21;88295;1274;99409;-63
2022/01/23 08:42:35;;;;;;;5.10;3.30;;;;;;;1.10;74.19;101838.36;88277;1274;89315;-67
2022/01/23 08:44:45;;;;;;;5.20;3.10;;;;;;;1.31;74.05;101840.46;88275;1274;95599;-67
2022/01/23 08:46:55;;;;;;;6.10;3.00;;;;;;;1.54;73.76;101842.53;88263;1273;77158;-67
2022/01/23 08:49:04;;;;;;;4.80;2.80;;;;;;;1.73;73.48;101844.89;88295;1274;80420;-67
2022/01/23 08:51:16;;;;;;;5.00;2.50;;;;;;;1.85;73.37;101849.48;88289;1274;99429;-67
2022/01/23 08:53:29;;;;;;;4.20;2.60;;;;;;;2.02;73.07;101846.16;88291;1274;89174;-67
2022/01/23 08:55:43;;;;;;;7.50;3.20;;;;;;;2.16;72.39;101845.30;88244;1274;94773;-64
2022/01/23 08:57:53;;;;;;;5.90;2.80;;;;;;;2.48;72.40;101855.06;88280;1274;79119;-64
2022/01/23 09:00:04;;;;;;;4.80;3.10;;;;;;;2.81;72.14;101855.42;88307;1273;81626;-64
2022/01/23 09:02:14;;;;;;;4.80;2.90;;;;;;;3.05;71.68;101855.27;88267;1273;98972;-66
2022/01/23 09:04:23;;;;;;;5.10;3.00;;;;;;;3.10;71.37;101854.71;88285;1274;88821;-63
2022/01/23 09:06:33;;;;;;;6.00;3.00;;;;;;;3.12;71.26;101859.35;88273;1274;94342;-66
2022/01/23 09:08:46;;;;;;;5.40;2.60;;;;;;;3.46;71.18;101862.29;88275;1274;77867;-66
2022/01/23 09:10:58;;;;;;;4.60;2.80;;;;;;;3.53;70.76;101865.67;88277;1274;83045;-63
2022/01/23 09:13:15;;;;;;;5.70;3.20;;;;;;;3.60;70.33;101866.98;88295;1274;96449;-64
2022/01/23 09:15:27;;;;;;;7.80;3.50;;;;;;;3.58;69.84;101866.23;88279;1272;87831;-64
2022/01/23 09:17:39;;;;;;;287.20;122.70;;;;;;;3.40;69.61;101867.73;88311;1274;93901;-64
2022/01/23 09:19:49;;;;;;;49.50;19.70;;;;;;;3.34;69.70;101867.99;88315;1274;76799;-63
2022/01/23 09:22:03;;;;;;;21.00;9.10;;;;;;;3.36;69.47;101871.39;88223;1273;83194;-67
2022/01/23 09:24:15;;;;;;;61.50;23.80;;;;;;;3.33;69.09;101874.99;88289;1274;98848;-63
2022/01/23 09:26:24;;;;;;;12.80;5.40;;;;;;;3.22;68.48;101875.61;88284;1274;85795;-64
2022/01/23 09:28:34;;;;;;;9.70;4.30;;;;;;;3.06;67.97;101878.64;88296;1274;95344;-64
2022/01/23 09:30:48;;;;;;;3.00;2.00;;;;;;;2.97;67.45;101876.41;88278;1274;80218;-66
2022/01/23 09:32:57;;;;;;;3.90;2.00;;;;;;;2.99;67.47;101881.05;88284;1274;80770;-68
2022/01/23 09:35:07;;;;;;;3.20;2.20;;;;;;;3.15;67.46;101886.77;88268;1274;97785;-67
2022/01/23 09:37:21;;;;;;;14.20;7.50;;;;;;;3.84;67.24;101892.17;88338;1274;85700;-68
2022/01/23 09:39:32;;;;;;;21.50;10.10;;;;;;;4.02;66.90;101885.54;88289;1273;94737;-67
2022/01/23 09:41:47;;;;;;;3.90;2.30;;;;;;;3.96;66.65;101887.58;88308;1273;77866;-63
2022/01/23 09:43:57;;;;;;;13.50;6.90;;;;;;;3.79;65.99;101885.25;88282;1273;82290;-64
2022/01/23 09:46:08;;;;;;;29.90;14.60;;;;;;;3.75;65.95;101881.91;88287;1274;98920;-67
2022/01/23 09:48:19;;;;;;;9.20;5.90;;;;;;;3.74;66.05;101878.45;88310;1274;87819;-67
2022/01/23 09:50:30;;;;;;;5.60;3.20;;;;;;;3.95;66.02;101874.45;88290;1274;94136;-64
2022/01/23 09:52:40;;;;;;;3.40;2.10;;;;;;;3.98;65.62;101870.25;88252;1274;79127;-63
2022/01/23 09:54:57;;;;;;;3.70;2.40;;;;;;;4.23;65.50;101870.08;88310;1274;82560;-68
2022/01/23 09:57:10;;;;;;;4.00;2.60;;;;;;;4.54;65.27;101869.98;88323;1273;99188;-65
2022/01/23 09:59:24;;;;;;;3.90;2.80;;;;;;;4.88;65.15;101873.52;88290;1274;89479;-61
2022/01/23 10:01:36;;;;;;;3.40;2.20;;;;;;;5.25;64.95;101876.16;88299;1274;94886;-64
2022/01/23 10:03:46;;;;;;;66.60;49.40;;;;;;;5.79;64.48;101872.95;88284;1273;77883;-67
2022/01/23 10:05:59;;;;;;;37.00;29.00;;;;;;;6.10;64.41;101868.80;88264;1273;82786;-64
2022/01/23 10:08:08;;;;;;;;;;;;;;;6.47;64.23;101859.82;88319;1274;97211;-66
2022/01/23 10:10:27;;;;;;;6.10;4.50;;;;;;;6.78;63.34;101857.89;88312;1274;88884;-68
2022/01/23 10:12:41;;;;;;;3.90;2.70;;;;;;;7.14;62.86;101852.50;88312;1273;92913;-63
2022/01/23 10:14:48;;;;;;;;;;;;;;;7.49;62.98;101846.88;88295;1274;77790;-62
2022/01/23 10:17:01;;;;;;;8.60;4.40;;;;;;;7.78;62.58;101845.61;88287;1274;82288;-63
2022/01/23 10:19:11;;;;;;;3.60;2.40;;;;;;;8.10;60.94;101846.67;88303;1274;98276;-63
2022/01/23 10:21:24;;;;;;;4.60;2.80;;;;;;;8.24;60.91;101853.38;88284;1273;87762;-63
2022/01/23 10:23:35;;;;;;;10.00;7.00;;;;;;;8.28;60.46;101853.82;88251;1274;95362;-62
2022/01/23 10:25:47;;;;;;;9.40;6.80;;;;;;;8.52;60.22;101855.00;88291;1274;78199;-68
2022/01/23 10:28:02;;;;;;;19.50;12.30;;;;;;;8.36;59.71;101858.23;88263;1274;82427;-70
2022/01/23 10:30:21;;;;;;;24.40;15.40;;;;;;;7.70;58.34;101860.95;88281;1274;98190;-69
2022/01/23 10:32:33;;;;;;;59.60;36.70;;;;;;;7.36;58.34;101862.71;88285;1274;89462;-61
2022/01/23 10:34:55;;;;;;;6.30;4.60;;;;;;;6.86;57.46;101868.69;88297;1274;94234;-64
2022/01/23 10:37:05;;;;;;;5.10;3.80;;;;;;;6.33;57.78;101872.62;88249;1274;78261;-62
2022/01/23 10:39:19;;;;;;;5.70;4.80;;;;;;;5.82;58.07;101877.15;88316;1273;82208;-64
2022/01/23 10:41:44;;;;;;;;;;;;;;;5.30;58.20;101879.33;88314;1274;97367;-67
2022/01/23 10:46:56;;;;;;;;;;;;;;;4.48;58.36;101876.07;88271;1274;93304;-69
2022/01/23 10:49:06;;;;;;;6.40;3.40;;;;;;;4.11;58.64;101878.05;88288;1274;78326;-68
2022/01/23 10:51:28;;;;;;;5.60;2.60;;;;;;;3.87;58.50;101878.77;88331;1274;81947;-62
2022/01/23 10:53:59;;;;;;;10.00;5.40;;;;;;;3.64;58.87;101879.55;88314;1274;97749;-65
2022/01/23 10:56:13;;;;;;;17.60;12.90;;;;;;;3.41;58.80;101878.69;88293;1274;89505;-67
2022/01/23 10:58:28;;;;;;;15.00;10.60;;;;;;;3.13;59.34;101878.69;88274;1274;94609;-68
2022/01/23 11:00:40;;;;;;;7.80;3.90;;;;;;;3.07;59.58;101880.38;88249;1274;77423;-66
2022/01/23 11:02:54;;;;;;;4.60;2.80;;;;;;;2.93;59.71;101880.98;88315;1274;81365;-65
2022/01/23 11:05:14;;;;;;;4.80;2.90;;;;;;;2.83;59.72;101882.17;88297;1274;98011;-64
2022/01/23 11:07:27;;;;;;;6.90;3.10;;;;;;;2.72;60.08;101879.39;88315;1274;88497;-71
2022/01/23 11:09:41;;;;;;;4.80;2.60;;;;;;;2.61;60.20;101880.81;88268;1274;93903;-68
2022/01/23 11:11:52;;;;;;;7.10;4.70;;;;;;;2.53;60.41;101875.17;88281;1274;77849;-62
2022/01/23 11:19:19;;;;;;;8.70;5.70;;;;;;;2.36;60.74;101881.60;88263;1273;89022;-64
2022/01/23 11:21:28;;;;;;;5.90;3.90;;;;;;;2.28;60.82;101889.25;88224;1274;95962;-62
2022/01/23 11:23:39;;;;;;;4.70;3.30;;;;;;;2.19;60.90;101892.73;88266;1274;77363;-63
2022/01/23 11:26:10;;;;;;;8.80;5.70;;;;;;;2.14;60.86;101897.62;88271;1274;82487;-64
2022/01/23 11:28:29;;;;;;;15.00;9.90;;;;;;;2.02;60.86;101901.45;88310;1274;98197;-63
2022/01/23 11:30:44;;;;;;;7.70;4.40;;;;;;;1.96;60.96;101900.26;88282;1274;86945;-68
2022/01/23 11:32:56;;;;;;;5.80;2.90;;;;;;;1.92;61.03;101896.96;88298;1274;93897;-67
2022/01/23 11:35:13;;;;;;;4.70;3.00;;;;;;;1.86;61.04;101903.39;88193;1274;77692;-67
2022/01/23 11:37:26;;;;;;;5.60;2.90;;;;;;;1.81;61.05;101904.77;88322;1274;80571;-62
2022/01/23 11:39:43;;;;;;;4.40;2.90;;;;;;;1.74;61.15;101906.64;88301;1274;97420;-63
2022/01/23 11:54:37;;;;;;;8.90;5.50;;;;;;;1.42;61.94;101917.67;88299;1273;87917;-68
2022/01/23 11:56:48;;;;;;;5.50;3.50;;;;;;;1.44;61.68;101922.36;88303;1274;95913;-68
2022/01/23 11:59:24;;;;;;;7.70;4.00;;;;;;;1.36;61.71;101920.77;88281;1274;78885;-68
2022/01/23 12:01:33;;;;;;;4.80;2.90;;;;;;;1.29;61.68;101920.80;88293;1274;81741;-63
2022/01/23 12:04:17;;;;;;;6.10;3.20;;;;;;;1.15;61.25;101918.98;88263;1274;98975;-62
2022/01/23 12:06:26;;;;;;;4.80;2.80;;;;;;;1.13;61.59;101917.69;88261;1274;88840;-62
2022/01/23 12:08:37;;;;;;;5.90;3.10;;;;;;;1.08;61.65;101914.05;88292;1274;92631;-62
2022/01/23 12:16:22;;;;;;;3.70;2.60;;;;;;;0.94;61.55;101906.79;88290;1274;82024;-62
2022/01/23 12:16:59;;;;;;;5.50;2.80;;;;;;;0.91;61.63;101903.40;88239;1274;98559;-62
2022/01/23 12:19:24;;;;;;;4.50;3.10;;;;;;;0.88;61.78;101905.35;88278;1274;88783;-63